sensor_id;sensor_type;location;lat;lon;timestamp;P1;durP1;ratioP1;P2;durP2;ratioP2
28756;SDS011;44294;48.282;14.282;2022-08-20T00:00:40;9.17;;;5.83;;
28756;SDS011;44294;48.282;14.282;2022-08-20T00:03:28;8.50;;;5.57;;
28756;SDS011;44294;48.282;14.282;2022-08-20T00:06:20;8.67;;;6.13;;
28756;SDS011;44294;48.282;14.282;2022-08-20T00:09:08;10.80;;;5.90;;
28756;SDS011;44294;48.282;14.282;2022-08-20T00:11:55;9.07;;;6.23;;
28756;SDS011;44294;48.282;14.282;2022-08-20T00:14:43;7.40;;;5.97;;
28756;SDS011;44294;48.282;14.282;2022-08-20T00:17:30;8.03;;;5.77;;
28756;SDS011;44294;48.282;14.282;2022-08-20T00:20:29;9.90;;;5.90;;
28756;SDS011;44294;48.282;14.282;2022-08-20T00:23:11;8.07;;;5.90;;
28756;SDS011;44294;48.282;14.282;2022-08-20T00:25:59;7.50;;;6.30;;
28756;SDS011;44294;48.282;14.282;2022-08-20T00:28:46;11.30;;;6.30;;
28756;SDS011;44294;48.282;14.282;2022-08-20T00:31:34;8.43;;;6.40;;
28756;SDS011;44294;48.282;14.282;2022-08-20T00:34:21;7.20;;;5.73;;
28756;SDS011;44294;48.282;14.282;2022-08-20T00:37:08;11.63;;;6.60;;
28756;SDS011;44294;48.282;14.282;2022-08-20T00:39:56;8.20;;;5.57;;
28756;SDS011;44294;48.282;14.282;2022-08-20T00:42:45;6.10;;;4.57;;
28756;SDS011;44294;48.282;14.282;2022-08-20T00:45:33;6.20;;;4.47;;
28756;SDS011;44294;48.282;14.282;2022-08-20T00:48:25;5.90;;;4.70;;
28756;SDS011;44294;48.282;14.282;2022-08-20T00:51:14;6.10;;;4.03;;
28756;SDS011;44294;48.282;14.282;2022-08-20T00:54:08;4.60;;;3.70;;
28756;SDS011;44294;48.282;14.282;2022-08-20T00:56:54;7.03;;;3.80;;
28756;SDS011;44294;48.282;14.282;2022-08-20T00:59:41;4.50;;;3.73;;
28756;SDS011;44294;48.282;14.282;2022-08-20T01:02:28;5.30;;;3.43;;
28756;SDS011;44294;48.282;14.282;2022-08-20T01:05:17;4.87;;;3.40;;
28756;SDS011;44294;48.282;14.282;2022-08-20T01:08:05;5.77;;;4.40;;
28756;SDS011;44294;48.282;14.282;2022-08-20T01:10:53;5.70;;;4.30;;
28756;SDS011;44294;48.282;14.282;2022-08-20T01:13:43;6.53;;;4.90;;
28756;SDS011;44294;48.282;14.282;2022-08-20T01:16:31;7.70;;;5.60;;
28756;SDS011;44294;48.282;14.282;2022-08-20T01:19:20;8.03;;;5.60;;
28756;SDS011;44294;48.282;14.282;2022-08-20T01:22:08;10.50;;;6.00;;
28756;SDS011;44294;48.282;14.282;2022-08-20T01:25:20;8.33;;;5.63;;
28756;SDS011;44294;48.282;14.282;2022-08-20T01:28:03;14.60;;;6.40;;
28756;SDS011;44294;48.282;14.282;2022-08-20T01:30:51;9.57;;;6.00;;
28756;SDS011;44294;48.282;14.282;2022-08-20T01:33:39;9.17;;;6.20;;
28756;SDS011;44294;48.282;14.282;2022-08-20T01:36:35;7.03;;;5.70;;
28756;SDS011;44294;48.282;14.282;2022-08-20T01:39:20;8.60;;;5.90;;
28756;SDS011;44294;48.282;14.282;2022-08-20T01:45:05;9.50;;;5.10;;
28756;SDS011;44294;48.282;14.282;2022-08-20T01:47:53;8.70;;;5.40;;
28756;SDS011;44294;48.282;14.282;2022-08-20T01:50:41;6.90;;;4.83;;
28756;SDS011;44294;48.282;14.282;2022-08-20T01:53:32;7.30;;;5.27;;
28756;SDS011;44294;48.282;14.282;2022-08-20T01:56:21;7.03;;;5.00;;
28756;SDS011;44294;48.282;14.282;2022-08-20T01:59:07;5.73;;;4.60;;
28756;SDS011;44294;48.282;14.282;2022-08-20T02:01:55;8.80;;;5.20;;
28756;SDS011;44294;48.282;14.282;2022-08-20T02:04:43;9.87;;;5.13;;
28756;SDS011;44294;48.282;14.282;2022-08-20T02:07:30;5.70;;;5.07;;
28756;SDS011;44294;48.282;14.282;2022-08-20T02:10:18;7.33;;;4.70;;
28756;SDS011;44294;48.282;14.282;2022-08-20T02:13:06;6.13;;;4.60;;
28756;SDS011;44294;48.282;14.282;2022-08-20T02:15:55;6.13;;;4.57;;
28756;SDS011;44294;48.282;14.282;2022-08-20T02:18:42;5.00;;;4.20;;
28756;SDS011;44294;48.282;14.282;2022-08-20T02:21:30;9.03;;;4.00;;
28756;SDS011;44294;48.282;14.282;2022-08-20T02:24:19;3.77;;;3.47;;
28756;SDS011;44294;48.282;14.282;2022-08-20T02:27:06;5.30;;;3.13;;
28756;SDS011;44294;48.282;14.282;2022-08-20T02:29:54;5.73;;;3.43;;
28756;SDS011;44294;48.282;14.282;2022-08-20T02:32:41;4.23;;;3.20;;
28756;SDS011;44294;48.282;14.282;2022-08-20T02:35:29;5.63;;;3.20;;
28756;SDS011;44294;48.282;14.282;2022-08-20T02:38:17;5.23;;;3.30;;
28756;SDS011;44294;48.282;14.282;2022-08-20T02:41:05;4.53;;;2.90;;
28756;SDS011;44294;48.282;14.282;2022-08-20T02:43:52;4.10;;;3.03;;
28756;SDS011;44294;48.282;14.282;2022-08-20T02:46:40;3.40;;;2.87;;
28756;SDS011;44294;48.282;14.282;2022-08-20T02:49:27;3.40;;;3.10;;
28756;SDS011;44294;48.282;14.282;2022-08-20T02:52:15;4.83;;;3.20;;
28756;SDS011;44294;48.282;14.282;2022-08-20T02:55:02;5.87;;;3.10;;
28756;SDS011;44294;48.282;14.282;2022-08-20T02:57:51;6.57;;;2.90;;
28756;SDS011;44294;48.282;14.282;2022-08-20T03:00:39;4.07;;;2.73;;
28756;SDS011;44294;48.282;14.282;2022-08-20T03:03:26;3.90;;;2.70;;
28756;SDS011;44294;48.282;14.282;2022-08-20T03:06:14;2.60;;;2.40;;
28756;SDS011;44294;48.282;14.282;2022-08-20T03:09:02;5.07;;;2.40;;
28756;SDS011;44294;48.282;14.282;2022-08-20T03:11:51;2.20;;;2.10;;
28756;SDS011;44294;48.282;14.282;2022-08-20T03:14:39;4.07;;;2.13;;
28756;SDS011;44294;48.282;14.282;2022-08-20T03:17:26;2.77;;;2.30;;
28756;SDS011;44294;48.282;14.282;2022-08-20T03:20:14;2.90;;;2.20;;
28756;SDS011;44294;48.282;14.282;2022-08-20T03:23:01;4.40;;;2.17;;
28756;SDS011;44294;48.282;14.282;2022-08-20T03:25:49;3.20;;;1.90;;
28756;SDS011;44294;48.282;14.282;2022-08-20T03:28:36;2.10;;;1.80;;
28756;SDS011;44294;48.282;14.282;2022-08-20T03:31:24;3.40;;;1.70;;
28756;SDS011;44294;48.282;14.282;2022-08-20T03:34:11;2.10;;;1.90;;
28756;SDS011;44294;48.282;14.282;2022-08-20T03:36:58;2.30;;;1.80;;
28756;SDS011;44294;48.282;14.282;2022-08-20T03:39:46;4.10;;;1.67;;
28756;SDS011;44294;48.282;14.282;2022-08-20T03:42:33;2.27;;;1.80;;
28756;SDS011;44294;48.282;14.282;2022-08-20T03:45:21;5.17;;;1.70;;
28756;SDS011;44294;48.282;14.282;2022-08-20T03:48:10;1.70;;;1.60;;
28756;SDS011;44294;48.282;14.282;2022-08-20T03:50:57;2.93;;;2.00;;
28756;SDS011;44294;48.282;14.282;2022-08-20T03:53:46;1.90;;;1.80;;
28756;SDS011;44294;48.282;14.282;2022-08-20T03:56:33;2.43;;;1.80;;
28756;SDS011;44294;48.282;14.282;2022-08-20T03:59:20;2.70;;;1.80;;
28756;SDS011;44294;48.282;14.282;2022-08-20T04:02:08;1.90;;;1.80;;
28756;SDS011;44294;48.282;14.282;2022-08-20T04:04:56;2.90;;;1.80;;
28756;SDS011;44294;48.282;14.282;2022-08-20T04:07:44;3.03;;;1.87;;
28756;SDS011;44294;48.282;14.282;2022-08-20T04:10:31;2.73;;;2.10;;
28756;SDS011;44294;48.282;14.282;2022-08-20T04:13:21;1.90;;;1.80;;
28756;SDS011;44294;48.282;14.282;2022-08-20T04:16:07;3.60;;;1.90;;
28756;SDS011;44294;48.282;14.282;2022-08-20T04:18:55;2.67;;;2.10;;
28756;SDS011;44294;48.282;14.282;2022-08-20T04:21:42;2.70;;;2.00;;
28756;SDS011;44294;48.282;14.282;2022-08-20T04:24:30;2.33;;;2.23;;
28756;SDS011;44294;48.282;14.282;2022-08-20T04:27:17;3.23;;;2.20;;
28756;SDS011;44294;48.282;14.282;2022-08-20T04:30:07;5.07;;;2.40;;
28756;SDS011;44294;48.282;14.282;2022-08-20T04:32:56;2.97;;;2.17;;
28756;SDS011;44294;48.282;14.282;2022-08-20T04:35:44;3.03;;;2.40;;
28756;SDS011;44294;48.282;14.282;2022-08-20T04:38:32;2.93;;;2.50;;
28756;SDS011;44294;48.282;14.282;2022-08-20T04:41:20;3.83;;;2.70;;
28756;SDS011;44294;48.282;14.282;2022-08-20T04:44:08;3.27;;;2.97;;
28756;SDS011;44294;48.282;14.282;2022-08-20T04:46:56;3.30;;;3.00;;
28756;SDS011;44294;48.282;14.282;2022-08-20T04:49:43;3.00;;;2.80;;
28756;SDS011;44294;48.282;14.282;2022-08-20T04:52:31;3.20;;;2.90;;
28756;SDS011;44294;48.282;14.282;2022-08-20T04:55:18;4.23;;;3.20;;
28756;SDS011;44294;48.282;14.282;2022-08-20T04:58:07;3.63;;;3.20;;
28756;SDS011;44294;48.282;14.282;2022-08-20T05:00:55;3.93;;;3.00;;
28756;SDS011;44294;48.282;14.282;2022-08-20T05:03:43;4.20;;;3.80;;
28756;SDS011;44294;48.282;14.282;2022-08-20T05:06:32;3.53;;;3.10;;
28756;SDS011;44294;48.282;14.282;2022-08-20T05:09:20;4.60;;;3.73;;
28756;SDS011;44294;48.282;14.282;2022-08-20T05:12:07;4.07;;;3.60;;
28756;SDS011;44294;48.282;14.282;2022-08-20T05:14:55;5.27;;;3.60;;
28756;SDS011;44294;48.282;14.282;2022-08-20T05:17:44;4.03;;;3.53;;
28756;SDS011;44294;48.282;14.282;2022-08-20T05:20:32;3.70;;;3.40;;
28756;SDS011;44294;48.282;14.282;2022-08-20T05:23:20;4.97;;;3.30;;
28756;SDS011;44294;48.282;14.282;2022-08-20T05:26:09;4.20;;;3.67;;
28756;SDS011;44294;48.282;14.282;2022-08-20T05:28:57;4.20;;;3.00;;
28756;SDS011;44294;48.282;14.282;2022-08-20T05:31:44;3.40;;;3.10;;
28756;SDS011;44294;48.282;14.282;2022-08-20T05:34:31;3.93;;;3.37;;
28756;SDS011;44294;48.282;14.282;2022-08-20T05:37:19;3.57;;;3.27;;
28756;SDS011;44294;48.282;14.282;2022-08-20T05:40:09;3.50;;;3.20;;
28756;SDS011;44294;48.282;14.282;2022-08-20T05:42:56;3.23;;;2.73;;
28756;SDS011;44294;48.282;14.282;2022-08-20T05:45:44;3.10;;;2.90;;
28756;SDS011;44294;48.282;14.282;2022-08-20T05:48:31;3.90;;;2.80;;
28756;SDS011;44294;48.282;14.282;2022-08-20T05:51:20;3.40;;;3.10;;
28756;SDS011;44294;48.282;14.282;2022-08-20T05:54:08;3.07;;;2.63;;
28756;SDS011;44294;48.282;14.282;2022-08-20T05:56:55;2.70;;;2.50;;
28756;SDS011;44294;48.282;14.282;2022-08-20T05:59:43;4.13;;;3.00;;
28756;SDS011;44294;48.282;14.282;2022-08-20T06:02:30;2.90;;;2.60;;
28756;SDS011;44294;48.282;14.282;2022-08-20T06:05:36;4.80;;;3.00;;
28756;SDS011;44294;48.282;14.282;2022-08-20T06:08:23;3.13;;;2.83;;
28756;SDS011;44294;48.282;14.282;2022-08-20T06:11:10;3.30;;;3.00;;
28756;SDS011;44294;48.282;14.282;2022-08-20T06:13:58;4.03;;;3.20;;
28756;SDS011;44294;48.282;14.282;2022-08-20T06:16:45;3.23;;;2.60;;
28756;SDS011;44294;48.282;14.282;2022-08-20T06:19:33;2.80;;;2.60;;
28756;SDS011;44294;48.282;14.282;2022-08-20T06:22:21;2.73;;;2.40;;
28756;SDS011;44294;48.282;14.282;2022-08-20T06:25:08;2.60;;;2.40;;
28756;SDS011;44294;48.282;14.282;2022-08-20T06:27:56;2.40;;;2.20;;
28756;SDS011;44294;48.282;14.282;2022-08-20T06:30:43;2.40;;;2.20;;
28756;SDS011;44294;48.282;14.282;2022-08-20T06:33:31;2.80;;;2.40;;
28756;SDS011;44294;48.282;14.282;2022-08-20T06:36:18;3.20;;;2.10;;
28756;SDS011;44294;48.282;14.282;2022-08-20T06:39:05;3.93;;;2.27;;
28756;SDS011;44294;48.282;14.282;2022-08-20T06:41:54;2.50;;;2.30;;
28756;SDS011;44294;48.282;14.282;2022-08-20T06:44:43;2.67;;;2.47;;
28756;SDS011;44294;48.282;14.282;2022-08-20T06:47:32;3.00;;;2.80;;
28756;SDS011;44294;48.282;14.282;2022-08-20T06:50:27;3.20;;;2.90;;
28756;SDS011;44294;48.282;14.282;2022-08-20T06:53:13;4.17;;;3.27;;
28756;SDS011;44294;48.282;14.282;2022-08-20T06:56:00;4.27;;;3.10;;
28756;SDS011;44294;48.282;14.282;2022-08-20T06:58:48;4.43;;;3.50;;
28756;SDS011;44294;48.282;14.282;2022-08-20T07:01:35;4.13;;;3.60;;
28756;SDS011;44294;48.282;14.282;2022-08-20T07:04:22;4.20;;;3.80;;
28756;SDS011;44294;48.282;14.282;2022-08-20T07:07:14;6.67;;;4.23;;
28756;SDS011;44294;48.282;14.282;2022-08-20T07:10:03;5.93;;;5.10;;
28756;SDS011;44294;48.282;14.282;2022-08-20T07:12:51;5.80;;;5.03;;
28756;SDS011;44294;48.282;14.282;2022-08-20T07:15:38;6.87;;;5.47;;
28756;SDS011;44294;48.282;14.282;2022-08-20T07:18:25;6.60;;;5.60;;
28756;SDS011;44294;48.282;14.282;2022-08-20T07:21:13;7.20;;;6.03;;
28756;SDS011;44294;48.282;14.282;2022-08-20T07:24:02;6.37;;;5.33;;
28756;SDS011;44294;48.282;14.282;2022-08-20T07:26:50;6.20;;;5.40;;
28756;SDS011;44294;48.282;14.282;2022-08-20T07:29:38;7.50;;;5.87;;
28756;SDS011;44294;48.282;14.282;2022-08-20T07:32:43;9.97;;;5.90;;
28756;SDS011;44294;48.282;14.282;2022-08-20T07:35:31;5.80;;;5.20;;
28756;SDS011;44294;48.282;14.282;2022-08-20T07:38:19;6.87;;;5.90;;
28756;SDS011;44294;48.282;14.282;2022-08-20T07:41:09;10.07;;;6.27;;
28756;SDS011;44294;48.282;14.282;2022-08-20T07:43:58;7.30;;;6.00;;
28756;SDS011;44294;48.282;14.282;2022-08-20T07:46:46;7.77;;;6.10;;
28756;SDS011;44294;48.282;14.282;2022-08-20T07:49:38;6.60;;;5.83;;
28756;SDS011;44294;48.282;14.282;2022-08-20T07:52:23;7.87;;;6.10;;
28756;SDS011;44294;48.282;14.282;2022-08-20T07:55:11;6.37;;;5.77;;
28756;SDS011;44294;48.282;14.282;2022-08-20T07:58:05;6.70;;;6.00;;
28756;SDS011;44294;48.282;14.282;2022-08-20T08:00:49;6.87;;;6.17;;
28756;SDS011;44294;48.282;14.282;2022-08-20T08:03:36;6.37;;;5.77;;
28756;SDS011;44294;48.282;14.282;2022-08-20T08:06:23;6.30;;;5.10;;
28756;SDS011;44294;48.282;14.282;2022-08-20T08:09:12;6.80;;;5.20;;
28756;SDS011;44294;48.282;14.282;2022-08-20T08:12:00;14.37;;;7.93;;
28756;SDS011;44294;48.282;14.282;2022-08-20T08:14:48;7.50;;;5.77;;
28756;SDS011;44294;48.282;14.282;2022-08-20T08:17:36;7.60;;;5.10;;
28756;SDS011;44294;48.282;14.282;2022-08-20T08:20:24;4.97;;;4.50;;
28756;SDS011;44294;48.282;14.282;2022-08-20T08:23:11;5.20;;;4.33;;
28756;SDS011;44294;48.282;14.282;2022-08-20T08:25:59;4.93;;;4.30;;
28756;SDS011;44294;48.282;14.282;2022-08-20T08:28:46;4.40;;;4.00;;
28756;SDS011;44294;48.282;14.282;2022-08-20T08:31:33;4.70;;;4.20;;
28756;SDS011;44294;48.282;14.282;2022-08-20T08:34:21;4.97;;;4.47;;
28756;SDS011;44294;48.282;14.282;2022-08-20T08:37:10;4.43;;;4.03;;
28756;SDS011;44294;48.282;14.282;2022-08-20T08:39:57;4.20;;;3.80;;
28756;SDS011;44294;48.282;14.282;2022-08-20T08:42:47;4.13;;;3.73;;
28756;SDS011;44294;48.282;14.282;2022-08-20T08:45:45;4.27;;;3.87;;
28756;SDS011;44294;48.282;14.282;2022-08-20T08:48:39;4.70;;;4.30;;
28756;SDS011;44294;48.282;14.282;2022-08-20T08:51:32;4.20;;;3.80;;
28756;SDS011;44294;48.282;14.282;2022-08-20T08:54:16;4.50;;;4.00;;
28756;SDS011;44294;48.282;14.282;2022-08-20T08:57:03;10.37;;;4.83;;
28756;SDS011;44294;48.282;14.282;2022-08-20T08:59:54;5.10;;;4.30;;
28756;SDS011;44294;48.282;14.282;2022-08-20T09:02:55;6.23;;;4.70;;
28756;SDS011;44294;48.282;14.282;2022-08-20T09:05:47;4.77;;;4.27;;
28756;SDS011;44294;48.282;14.282;2022-08-20T09:08:39;3.80;;;3.50;;
28756;SDS011;44294;48.282;14.282;2022-08-20T09:11:27;4.60;;;4.20;;
28756;SDS011;44294;48.282;14.282;2022-08-20T09:14:15;4.13;;;3.73;;
28756;SDS011;44294;48.282;14.282;2022-08-20T09:17:03;4.50;;;4.10;;
28756;SDS011;44294;48.282;14.282;2022-08-20T09:19:51;4.10;;;3.80;;
28756;SDS011;44294;48.282;14.282;2022-08-20T09:22:38;3.83;;;3.40;;
28756;SDS011;44294;48.282;14.282;2022-08-20T09:25:26;4.00;;;3.70;;
28756;SDS011;44294;48.282;14.282;2022-08-20T09:28:14;5.07;;;3.90;;
28756;SDS011;44294;48.282;14.282;2022-08-20T09:31:02;3.53;;;3.23;;
28756;SDS011;44294;48.282;14.282;2022-08-20T09:33:50;4.13;;;3.73;;
28756;SDS011;44294;48.282;14.282;2022-08-20T09:36:38;3.63;;;3.33;;
28756;SDS011;44294;48.282;14.282;2022-08-20T09:39:25;3.43;;;3.13;;
28756;SDS011;44294;48.282;14.282;2022-08-20T09:42:14;3.30;;;3.07;;
28756;SDS011;44294;48.282;14.282;2022-08-20T09:45:02;3.73;;;3.33;;
28756;SDS011;44294;48.282;14.282;2022-08-20T09:47:50;3.77;;;3.40;;
28756;SDS011;44294;48.282;14.282;2022-08-20T09:50:37;4.13;;;3.73;;
28756;SDS011;44294;48.282;14.282;2022-08-20T09:53:26;4.00;;;3.70;;
28756;SDS011;44294;48.282;14.282;2022-08-20T09:56:13;4.17;;;3.77;;
28756;SDS011;44294;48.282;14.282;2022-08-20T09:59:01;4.60;;;4.20;;
28756;SDS011;44294;48.282;14.282;2022-08-20T10:01:48;4.77;;;4.30;;
28756;SDS011;44294;48.282;14.282;2022-08-20T10:04:36;4.80;;;4.30;;
28756;SDS011;44294;48.282;14.282;2022-08-20T10:07:23;4.80;;;4.40;;
28756;SDS011;44294;48.282;14.282;2022-08-20T10:10:11;6.30;;;5.00;;
28756;SDS011;44294;48.282;14.282;2022-08-20T10:12:59;8.70;;;5.00;;
28756;SDS011;44294;48.282;14.282;2022-08-20T10:15:47;4.93;;;4.43;;
28756;SDS011;44294;48.282;14.282;2022-08-20T10:18:35;5.57;;;4.70;;
28756;SDS011;44294;48.282;14.282;2022-08-20T10:21:22;5.60;;;5.00;;
28756;SDS011;44294;48.282;14.282;2022-08-20T10:24:09;6.30;;;4.80;;
28756;SDS011;44294;48.282;14.282;2022-08-20T10:26:57;5.87;;;4.67;;
28756;SDS011;44294;48.282;14.282;2022-08-20T10:29:44;5.20;;;4.70;;
28756;SDS011;44294;48.282;14.282;2022-08-20T10:32:32;5.67;;;5.00;;
28756;SDS011;44294;48.282;14.282;2022-08-20T10:35:19;5.77;;;5.10;;
28756;SDS011;44294;48.282;14.282;2022-08-20T10:38:06;7.20;;;4.73;;
28756;SDS011;44294;48.282;14.282;2022-08-20T10:40:54;5.90;;;5.30;;
28756;SDS011;44294;48.282;14.282;2022-08-20T10:43:41;8.10;;;5.23;;
28756;SDS011;44294;48.282;14.282;2022-08-20T10:46:29;7.50;;;5.80;;
28756;SDS011;44294;48.282;14.282;2022-08-20T10:49:16;6.27;;;5.43;;
28756;SDS011;44294;48.282;14.282;2022-08-20T10:52:04;6.57;;;5.67;;
28756;SDS011;44294;48.282;14.282;2022-08-20T10:54:51;5.73;;;5.10;;
28756;SDS011;44294;48.282;14.282;2022-08-20T10:57:39;6.10;;;5.47;;
28756;SDS011;44294;48.282;14.282;2022-08-20T11:00:27;6.70;;;5.70;;
28756;SDS011;44294;48.282;14.282;2022-08-20T11:03:14;8.93;;;6.50;;
28756;SDS011;44294;48.282;14.282;2022-08-20T11:06:01;7.07;;;5.70;;
28756;SDS011;44294;48.282;14.282;2022-08-20T11:08:49;8.33;;;5.70;;
28756;SDS011;44294;48.282;14.282;2022-08-20T11:11:36;6.57;;;5.73;;
28756;SDS011;44294;48.282;14.282;2022-08-20T11:14:24;7.20;;;5.77;;
28756;SDS011;44294;48.282;14.282;2022-08-20T11:17:11;7.03;;;6.10;;
28756;SDS011;44294;48.282;14.282;2022-08-20T11:19:59;7.57;;;6.20;;
28756;SDS011;44294;48.282;14.282;2022-08-20T11:22:47;7.23;;;6.00;;
28756;SDS011;44294;48.282;14.282;2022-08-20T11:25:34;6.77;;;6.07;;
28756;SDS011;44294;48.282;14.282;2022-08-20T11:28:21;7.70;;;6.40;;
28756;SDS011;44294;48.282;14.282;2022-08-20T11:31:09;7.00;;;6.30;;
28756;SDS011;44294;48.282;14.282;2022-08-20T11:33:56;7.20;;;6.50;;
28756;SDS011;44294;48.282;14.282;2022-08-20T11:36:44;8.37;;;6.30;;
28756;SDS011;44294;48.282;14.282;2022-08-20T11:39:32;9.03;;;6.50;;
28756;SDS011;44294;48.282;14.282;2022-08-20T11:42:19;8.30;;;7.00;;
28756;SDS011;44294;48.282;14.282;2022-08-20T11:45:07;7.87;;;6.20;;
28756;SDS011;44294;48.282;14.282;2022-08-20T11:47:54;7.40;;;6.57;;
28756;SDS011;44294;48.282;14.282;2022-08-20T11:50:42;7.50;;;6.07;;
28756;SDS011;44294;48.282;14.282;2022-08-20T11:53:29;6.30;;;5.70;;
28756;SDS011;44294;48.282;14.282;2022-08-20T11:56:16;6.90;;;6.20;;
28756;SDS011;44294;48.282;14.282;2022-08-20T11:59:05;7.23;;;6.47;;
28756;SDS011;44294;48.282;14.282;2022-08-20T12:01:53;8.30;;;6.67;;
28756;SDS011;44294;48.282;14.282;2022-08-20T12:04:41;7.07;;;6.37;;
28756;SDS011;44294;48.282;14.282;2022-08-20T12:07:28;6.83;;;6.13;;
28756;SDS011;44294;48.282;14.282;2022-08-20T12:10:15;8.90;;;7.43;;
28756;SDS011;44294;48.282;14.282;2022-08-20T12:13:03;10.83;;;6.90;;
28756;SDS011;44294;48.282;14.282;2022-08-20T12:15:52;7.83;;;6.73;;
28756;SDS011;44294;48.282;14.282;2022-08-20T12:18:39;8.23;;;6.30;;
28756;SDS011;44294;48.282;14.282;2022-08-20T12:21:27;7.80;;;6.73;;
28756;SDS011;44294;48.282;14.282;2022-08-20T12:24:14;7.47;;;6.33;;
28756;SDS011;44294;48.282;14.282;2022-08-20T12:27:08;8.53;;;6.50;;
28756;SDS011;44294;48.282;14.282;2022-08-20T12:29:58;7.50;;;6.23;;
28756;SDS011;44294;48.282;14.282;2022-08-20T12:32:45;7.70;;;6.10;;
28756;SDS011;44294;48.282;14.282;2022-08-20T12:35:32;7.30;;;6.37;;
28756;SDS011;44294;48.282;14.282;2022-08-20T12:38:20;6.87;;;6.17;;
28756;SDS011;44294;48.282;14.282;2022-08-20T12:41:07;6.30;;;5.70;;
28756;SDS011;44294;48.282;14.282;2022-08-20T12:43:54;5.80;;;5.20;;
28756;SDS011;44294;48.282;14.282;2022-08-20T12:46:41;6.53;;;5.83;;
28756;SDS011;44294;48.282;14.282;2022-08-20T12:49:29;6.50;;;5.17;;
28756;SDS011;44294;48.282;14.282;2022-08-20T12:52:16;5.30;;;4.80;;
28756;SDS011;44294;48.282;14.282;2022-08-20T12:55:04;5.67;;;4.97;;
28756;SDS011;44294;48.282;14.282;2022-08-20T12:57:53;5.53;;;4.77;;
28756;SDS011;44294;48.282;14.282;2022-08-20T13:00:43;6.17;;;5.10;;
28756;SDS011;44294;48.282;14.282;2022-08-20T13:03:30;6.03;;;5.27;;
28756;SDS011;44294;48.282;14.282;2022-08-20T13:06:18;5.43;;;4.90;;
28756;SDS011;44294;48.282;14.282;2022-08-20T13:09:05;7.87;;;5.60;;
28756;SDS011;44294;48.282;14.282;2022-08-20T13:11:52;5.13;;;4.63;;
28756;SDS011;44294;48.282;14.282;2022-08-20T13:14:40;6.27;;;4.80;;
28756;SDS011;44294;48.282;14.282;2022-08-20T13:17:27;5.97;;;5.37;;
28756;SDS011;44294;48.282;14.282;2022-08-20T13:20:15;4.80;;;4.30;;
28756;SDS011;44294;48.282;14.282;2022-08-20T13:23:03;5.00;;;4.50;;
28756;SDS011;44294;48.282;14.282;2022-08-20T13:25:50;5.47;;;4.70;;
28756;SDS011;44294;48.282;14.282;2022-08-20T13:28:38;4.80;;;4.40;;
28756;SDS011;44294;48.282;14.282;2022-08-20T13:31:25;5.10;;;4.60;;
28756;SDS011;44294;48.282;14.282;2022-08-20T13:34:14;5.10;;;4.60;;
28756;SDS011;44294;48.282;14.282;2022-08-20T13:37:01;4.60;;;4.20;;
28756;SDS011;44294;48.282;14.282;2022-08-20T13:39:49;5.87;;;4.43;;
28756;SDS011;44294;48.282;14.282;2022-08-20T13:42:36;5.00;;;4.50;;
28756;SDS011;44294;48.282;14.282;2022-08-20T13:45:24;6.20;;;4.90;;
28756;SDS011;44294;48.282;14.282;2022-08-20T13:48:11;4.63;;;4.23;;
28756;SDS011;44294;48.282;14.282;2022-08-20T13:50:58;4.23;;;3.83;;
28756;SDS011;44294;48.282;14.282;2022-08-20T13:53:46;4.40;;;4.00;;
28756;SDS011;44294;48.282;14.282;2022-08-20T13:56:33;5.50;;;3.93;;
28756;SDS011;44294;48.282;14.282;2022-08-20T13:59:20;4.20;;;3.80;;
28756;SDS011;44294;48.282;14.282;2022-08-20T14:02:09;7.70;;;5.17;;
28756;SDS011;44294;48.282;14.282;2022-08-20T14:04:56;4.83;;;4.33;;
28756;SDS011;44294;48.282;14.282;2022-08-20T14:07:44;4.33;;;3.93;;
28756;SDS011;44294;48.282;14.282;2022-08-20T14:10:31;4.97;;;4.47;;
28756;SDS011;44294;48.282;14.282;2022-08-20T14:13:21;4.73;;;4.23;;
28756;SDS011;44294;48.282;14.282;2022-08-20T14:16:07;5.93;;;4.40;;
28756;SDS011;44294;48.282;14.282;2022-08-20T14:18:55;4.53;;;4.13;;
28756;SDS011;44294;48.282;14.282;2022-08-20T14:21:42;4.60;;;4.20;;
28756;SDS011;44294;48.282;14.282;2022-08-20T14:24:29;4.80;;;4.30;;
28756;SDS011;44294;48.282;14.282;2022-08-20T14:27:18;4.70;;;4.30;;
28756;SDS011;44294;48.282;14.282;2022-08-20T14:30:06;6.97;;;4.80;;
28756;SDS011;44294;48.282;14.282;2022-08-20T14:32:54;7.10;;;4.80;;
28756;SDS011;44294;48.282;14.282;2022-08-20T14:35:42;5.50;;;4.97;;
28756;SDS011;44294;48.282;14.282;2022-08-20T14:38:29;6.37;;;5.00;;
28756;SDS011;44294;48.282;14.282;2022-08-20T14:41:17;5.20;;;4.60;;
28756;SDS011;44294;48.282;14.282;2022-08-20T14:44:04;5.27;;;4.77;;
28756;SDS011;44294;48.282;14.282;2022-08-20T14:46:51;5.10;;;4.53;;
28756;SDS011;44294;48.282;14.282;2022-08-20T14:49:38;5.07;;;4.53;;
28756;SDS011;44294;48.282;14.282;2022-08-20T14:52:26;5.07;;;4.50;;
28756;SDS011;44294;48.282;14.282;2022-08-20T14:55:14;5.53;;;4.37;;
28756;SDS011;44294;48.282;14.282;2022-08-20T14:58:08;5.10;;;4.40;;
28756;SDS011;44294;48.282;14.282;2022-08-20T15:00:56;4.80;;;4.17;;
28756;SDS011;44294;48.282;14.282;2022-08-20T15:03:44;4.63;;;4.20;;
28756;SDS011;44294;48.282;14.282;2022-08-20T15:06:31;4.70;;;4.20;;
28756;SDS011;44294;48.282;14.282;2022-08-20T15:09:19;4.73;;;4.33;;
28756;SDS011;44294;48.282;14.282;2022-08-20T15:12:06;4.70;;;4.17;;
28756;SDS011;44294;48.282;14.282;2022-08-20T15:14:54;4.50;;;4.10;;
28756;SDS011;44294;48.282;14.282;2022-08-20T15:17:42;5.17;;;4.53;;
28756;SDS011;44294;48.282;14.282;2022-08-20T15:20:31;4.87;;;4.40;;
28756;SDS011;44294;48.282;14.282;2022-08-20T15:23:19;4.70;;;4.30;;
28756;SDS011;44294;48.282;14.282;2022-08-20T15:26:06;4.87;;;4.40;;
28756;SDS011;44294;48.282;14.282;2022-08-20T15:28:54;6.00;;;4.10;;
28756;SDS011;44294;48.282;14.282;2022-08-20T15:31:41;6.20;;;4.13;;
28756;SDS011;44294;48.282;14.282;2022-08-20T15:34:28;4.40;;;4.00;;
28756;SDS011;44294;48.282;14.282;2022-08-20T15:37:17;6.60;;;3.80;;
28756;SDS011;44294;48.282;14.282;2022-08-20T15:40:05;6.17;;;3.90;;
28756;SDS011;44294;48.282;14.282;2022-08-20T15:42:53;4.73;;;4.00;;
28756;SDS011;44294;48.282;14.282;2022-08-20T15:45:41;4.17;;;3.77;;
28756;SDS011;44294;48.282;14.282;2022-08-20T15:48:32;5.27;;;3.80;;
28756;SDS011;44294;48.282;14.282;2022-08-20T15:51:21;4.40;;;3.80;;
28756;SDS011;44294;48.282;14.282;2022-08-20T15:54:14;4.40;;;4.00;;
28756;SDS011;44294;48.282;14.282;2022-08-20T15:57:02;6.30;;;3.97;;
28756;SDS011;44294;48.282;14.282;2022-08-20T16:11:59;4.20;;;3.77;;
28756;SDS011;44294;48.282;14.282;2022-08-20T16:14:46;4.30;;;3.90;;
28756;SDS011;44294;48.282;14.282;2022-08-20T16:17:41;4.17;;;3.80;;
28756;SDS011;44294;48.282;14.282;2022-08-20T16:23:31;4.83;;;3.90;;
28756;SDS011;44294;48.282;14.282;2022-08-20T16:26:18;4.70;;;4.00;;
28756;SDS011;44294;48.282;14.282;2022-08-20T16:29:21;4.53;;;4.00;;
28756;SDS011;44294;48.282;14.282;2022-08-20T16:32:19;7.50;;;4.00;;
28756;SDS011;44294;48.282;14.282;2022-08-20T16:38:17;4.37;;;3.70;;
28756;SDS011;44294;48.282;14.282;2022-08-20T16:40:47;4.87;;;3.70;;
28756;SDS011;44294;48.282;14.282;2022-08-20T16:43:38;4.40;;;4.00;;
28756;SDS011;44294;48.282;14.282;2022-08-20T16:46:25;4.33;;;3.93;;
28756;SDS011;44294;48.282;14.282;2022-08-20T16:49:13;7.90;;;4.23;;
28756;SDS011;44294;48.282;14.282;2022-08-20T16:52:00;6.50;;;4.77;;
28756;SDS011;44294;48.282;14.282;2022-08-20T16:54:48;5.43;;;4.83;;
28756;SDS011;44294;48.282;14.282;2022-08-20T16:57:35;6.53;;;5.00;;